sensor_id;sensor_type;location;lat;lon;timestamp;P1;durP1;ratioP1;P2;durP2;ratioP2
69172;SDS011;56280;49.662;8.408;2022-09-03T00:02:35;3.08;;;1.50;;
69172;SDS011;56280;49.662;8.408;2022-09-03T00:05:15;3.80;;;1.80;;
69172;SDS011;56280;49.662;8.408;2022-09-03T00:08:32;3.33;;;1.80;;
69172;SDS011;56280;49.662;8.408;2022-09-03T00:13:58;4.30;;;1.77;;
69172;SDS011;56280;49.662;8.408;2022-09-03T00:16:43;5.82;;;1.80;;
69172;SDS011;56280;49.662;8.408;2022-09-03T00:19:15;4.40;;;2.13;;
69172;SDS011;56280;49.662;8.408;2022-09-03T00:21:51;3.95;;;1.65;;
69172;SDS011;56280;49.662;8.408;2022-09-03T00:24:22;5.00;;;2.03;;
69172;SDS011;56280;49.662;8.408;2022-09-03T00:26:53;5.50;;;1.90;;
69172;SDS011;56280;49.662;8.408;2022-09-03T00:29:24;3.85;;;2.03;;
69172;SDS011;56280;49.662;8.408;2022-09-03T00:31:57;4.18;;;1.77;;
69172;SDS011;56280;49.662;8.408;2022-09-03T00:34:30;3.95;;;1.95;;
69172;SDS011;56280;49.662;8.408;2022-09-03T00:37:00;3.30;;;1.93;;
69172;SDS011;56280;49.662;8.408;2022-09-03T00:39:26;3.60;;;2.10;;
69172;SDS011;56280;49.662;8.408;2022-09-03T00:52:56;3.83;;;2.13;;
69172;SDS011;56280;49.662;8.408;2022-09-03T00:55:48;6.93;;;1.97;;
69172;SDS011;56280;49.662;8.408;2022-09-03T01:00:53;4.13;;;2.10;;
69172;SDS011;56280;49.662;8.408;2022-09-03T01:03:44;5.00;;;1.90;;
69172;SDS011;56280;49.662;8.408;2022-09-03T01:11:23;3.90;;;1.70;;
69172;SDS011;56280;49.662;8.408;2022-09-03T01:17:10;4.30;;;1.92;;
69172;SDS011;56280;49.662;8.408;2022-09-03T01:31:34;3.15;;;1.70;;
69172;SDS011;56280;49.662;8.408;2022-09-03T01:34:23;3.55;;;1.98;;
69172;SDS011;56280;49.662;8.408;2022-09-03T01:39:31;3.67;;;1.87;;
69172;SDS011;56280;49.662;8.408;2022-09-03T01:50:22;4.32;;;1.98;;
69172;SDS011;56280;49.662;8.408;2022-09-03T01:53:26;3.38;;;1.60;;
69172;SDS011;56280;49.662;8.408;2022-09-03T01:56:21;4.78;;;1.85;;
69172;SDS011;56280;49.662;8.408;2022-09-03T02:01:44;4.10;;;1.90;;
69172;SDS011;56280;49.662;8.408;2022-09-03T02:04:31;3.33;;;1.77;;
69172;SDS011;56280;49.662;8.408;2022-09-03T02:06:57;5.85;;;2.10;;
69172;SDS011;56280;49.662;8.408;2022-09-03T02:09:25;3.67;;;1.95;;
69172;SDS011;56280;49.662;8.408;2022-09-03T02:11:55;2.90;;;1.60;;
69172;SDS011;56280;49.662;8.408;2022-09-03T02:14:44;3.55;;;1.75;;
69172;SDS011;56280;49.662;8.408;2022-09-03T02:17:09;3.30;;;2.00;;
69172;SDS011;56280;49.662;8.408;2022-09-03T02:19:35;3.75;;;1.98;;
69172;SDS011;56280;49.662;8.408;2022-09-03T02:22:02;3.70;;;1.63;;
69172;SDS011;56280;49.662;8.408;2022-09-03T02:24:28;5.40;;;1.70;;
69172;SDS011;56280;49.662;8.408;2022-09-03T02:26:53;4.80;;;2.10;;
69172;SDS011;56280;49.662;8.408;2022-09-03T02:29:20;3.33;;;1.80;;
69172;SDS011;56280;49.662;8.408;2022-09-03T02:31:46;4.55;;;2.08;;
69172;SDS011;56280;49.662;8.408;2022-09-03T02:34:11;3.15;;;2.30;;
69172;SDS011;56280;49.662;8.408;2022-09-03T02:36:41;3.90;;;2.13;;
69172;SDS011;56280;49.662;8.408;2022-09-03T02:39:12;4.43;;;1.88;;
69172;SDS011;56280;49.662;8.408;2022-09-03T02:41:38;3.50;;;2.00;;
69172;SDS011;56280;49.662;8.408;2022-09-03T02:47:27;6.22;;;1.90;;
69172;SDS011;56280;49.662;8.408;2022-09-03T02:49:57;3.90;;;1.95;;
69172;SDS011;56280;49.662;8.408;2022-09-03T02:52:22;3.90;;;2.03;;
69172;SDS011;56280;49.662;8.408;2022-09-03T02:54:47;3.27;;;1.83;;
69172;SDS011;56280;49.662;8.408;2022-09-03T02:57:13;4.17;;;2.10;;
69172;SDS011;56280;49.662;8.408;2022-09-03T02:59:40;7.68;;;2.65;;
69172;SDS011;56280;49.662;8.408;2022-09-03T03:02:08;3.53;;;1.70;;
69172;SDS011;56280;49.662;8.408;2022-09-03T03:04:33;3.05;;;2.00;;
69172;SDS011;56280;49.662;8.408;2022-09-03T03:06:59;4.47;;;2.05;;
69172;SDS011;56280;49.662;8.408;2022-09-03T03:09:24;4.13;;;1.70;;
69172;SDS011;56280;49.662;8.408;2022-09-03T03:11:50;3.33;;;1.83;;
69172;SDS011;56280;49.662;8.408;2022-09-03T03:14:16;3.67;;;1.83;;
69172;SDS011;56280;49.662;8.408;2022-09-03T03:16:42;5.18;;;1.70;;
69172;SDS011;56280;49.662;8.408;2022-09-03T03:19:08;4.77;;;1.80;;
69172;SDS011;56280;49.662;8.408;2022-09-03T03:21:33;3.75;;;1.90;;
69172;SDS011;56280;49.662;8.408;2022-09-03T03:24:00;5.22;;;1.90;;
69172;SDS011;56280;49.662;8.408;2022-09-03T03:26:26;4.07;;;2.27;;
69172;SDS011;56280;49.662;8.408;2022-09-03T03:28:54;4.00;;;1.80;;
69172;SDS011;56280;49.662;8.408;2022-09-03T03:31:22;3.10;;;1.75;;
69172;SDS011;56280;49.662;8.408;2022-09-03T03:33:51;4.10;;;2.13;;
69172;SDS011;56280;49.662;8.408;2022-09-03T03:36:21;4.55;;;1.80;;
69172;SDS011;56280;49.662;8.408;2022-09-03T03:38:48;4.18;;;2.00;;
69172;SDS011;56280;49.662;8.408;2022-09-03T03:43:40;3.22;;;1.80;;
69172;SDS011;56280;49.662;8.408;2022-09-03T03:46:06;4.20;;;1.77;;
69172;SDS011;56280;49.662;8.408;2022-09-03T03:48:32;2.90;;;1.70;;
69172;SDS011;56280;49.662;8.408;2022-09-03T03:51:04;5.68;;;2.45;;
69172;SDS011;56280;49.662;8.408;2022-09-03T03:53:32;3.13;;;1.80;;
69172;SDS011;56280;49.662;8.408;2022-09-03T03:56:00;4.32;;;1.95;;
69172;SDS011;56280;49.662;8.408;2022-09-03T03:58:27;4.60;;;1.73;;
69172;SDS011;56280;49.662;8.408;2022-09-03T04:00:53;3.40;;;1.70;;
69172;SDS011;56280;49.662;8.408;2022-09-03T04:03:18;3.92;;;1.95;;
69172;SDS011;56280;49.662;8.408;2022-09-03T04:05:54;4.50;;;2.33;;
69172;SDS011;56280;49.662;8.408;2022-09-03T04:08:20;4.38;;;1.83;;
69172;SDS011;56280;49.662;8.408;2022-09-03T04:10:46;3.40;;;2.03;;
69172;SDS011;56280;49.662;8.408;2022-09-03T04:13:11;5.43;;;1.90;;
69172;SDS011;56280;49.662;8.408;2022-09-03T04:15:37;5.27;;;1.97;;
69172;SDS011;56280;49.662;8.408;2022-09-03T04:18:02;3.33;;;1.93;;
69172;SDS011;56280;49.662;8.408;2022-09-03T04:20:28;3.95;;;1.73;;
69172;SDS011;56280;49.662;8.408;2022-09-03T04:22:53;3.27;;;2.20;;
69172;SDS011;56280;49.662;8.408;2022-09-03T04:25:18;4.00;;;2.00;;
69172;SDS011;56280;49.662;8.408;2022-09-03T04:27:44;3.77;;;1.97;;
69172;SDS011;56280;49.662;8.408;2022-09-03T04:30:09;5.13;;;2.13;;
69172;SDS011;56280;49.662;8.408;2022-09-03T04:32:35;4.50;;;2.00;;
69172;SDS011;56280;49.662;8.408;2022-09-03T04:35:22;3.35;;;1.83;;
69172;SDS011;56280;49.662;8.408;2022-09-03T04:37:49;3.28;;;2.08;;
69172;SDS011;56280;49.662;8.408;2022-09-03T04:40:15;4.33;;;1.80;;
69172;SDS011;56280;49.662;8.408;2022-09-03T04:42:40;3.58;;;1.90;;
69172;SDS011;56280;49.662;8.408;2022-09-03T04:45:06;4.40;;;2.37;;
69172;SDS011;56280;49.662;8.408;2022-09-03T04:47:32;3.58;;;1.92;;
69172;SDS011;56280;49.662;8.408;2022-09-03T04:49:57;3.53;;;2.08;;
69172;SDS011;56280;49.662;8.408;2022-09-03T04:52:23;4.40;;;1.67;;
69172;SDS011;56280;49.662;8.408;2022-09-03T04:54:49;4.20;;;2.03;;
69172;SDS011;56280;49.662;8.408;2022-09-03T04:57:14;4.40;;;2.00;;
69172;SDS011;56280;49.662;8.408;2022-09-03T04:59:40;3.77;;;2.00;;
69172;SDS011;56280;49.662;8.408;2022-09-03T05:02:06;4.47;;;2.35;;
69172;SDS011;56280;49.662;8.408;2022-09-03T05:04:32;4.53;;;2.08;;
69172;SDS011;56280;49.662;8.408;2022-09-03T05:06:57;3.47;;;1.80;;
69172;SDS011;56280;49.662;8.408;2022-09-03T05:09:23;4.33;;;2.03;;
69172;SDS011;56280;49.662;8.408;2022-09-03T05:11:48;4.13;;;1.90;;
69172;SDS011;56280;49.662;8.408;2022-09-03T05:14:13;3.73;;;2.47;;
69172;SDS011;56280;49.662;8.408;2022-09-03T05:16:39;3.77;;;1.90;;
69172;SDS011;56280;49.662;8.408;2022-09-03T05:19:04;4.70;;;2.23;;
69172;SDS011;56280;49.662;8.408;2022-09-03T05:21:32;4.38;;;2.10;;
69172;SDS011;56280;49.662;8.408;2022-09-03T05:24:00;3.60;;;2.08;;
69172;SDS011;56280;49.662;8.408;2022-09-03T05:26:26;4.72;;;2.67;;
69172;SDS011;56280;49.662;8.408;2022-09-03T05:28:55;6.57;;;2.80;;
69172;SDS011;56280;49.662;8.408;2022-09-03T05:31:22;8.05;;;3.53;;
69172;SDS011;56280;49.662;8.408;2022-09-03T05:33:51;6.50;;;3.25;;
69172;SDS011;56280;49.662;8.408;2022-09-03T05:36:19;5.20;;;2.92;;
69172;SDS011;56280;49.662;8.408;2022-09-03T05:38:46;7.65;;;3.20;;
69172;SDS011;56280;49.662;8.408;2022-09-03T05:41:13;6.13;;;3.20;;
69172;SDS011;56280;49.662;8.408;2022-09-03T05:43:40;7.97;;;3.30;;
69172;SDS011;56280;49.662;8.408;2022-09-03T05:46:07;5.88;;;3.80;;
69172;SDS011;56280;49.662;8.408;2022-09-03T05:48:34;8.27;;;3.90;;
69172;SDS011;56280;49.662;8.408;2022-09-03T05:51:22;4.47;;;3.07;;
69172;SDS011;56280;49.662;8.408;2022-09-03T05:53:47;4.40;;;3.28;;
69172;SDS011;56280;49.662;8.408;2022-09-03T05:56:17;4.93;;;3.10;;
69172;SDS011;56280;49.662;8.408;2022-09-03T05:58:46;6.75;;;3.10;;
69172;SDS011;56280;49.662;8.408;2022-09-03T06:03:56;7.00;;;3.63;;
69172;SDS011;56280;49.662;8.408;2022-09-03T06:06:26;5.55;;;3.03;;
69172;SDS011;56280;49.662;8.408;2022-09-03T06:08:53;6.18;;;3.50;;
69172;SDS011;56280;49.662;8.408;2022-09-03T06:11:22;4.93;;;3.38;;
69172;SDS011;56280;49.662;8.408;2022-09-03T06:13:58;5.20;;;3.22;;
69172;SDS011;56280;49.662;8.408;2022-09-03T06:16:29;5.67;;;2.90;;
69172;SDS011;56280;49.662;8.408;2022-09-03T06:18:55;5.18;;;3.22;;
69172;SDS011;56280;49.662;8.408;2022-09-03T06:21:21;6.07;;;3.47;;
69172;SDS011;56280;49.662;8.408;2022-09-03T06:23:50;4.63;;;3.50;;
69172;SDS011;56280;49.662;8.408;2022-09-03T06:26:17;6.30;;;3.55;;
69172;SDS011;56280;49.662;8.408;2022-09-03T06:28:44;5.47;;;3.00;;
69172;SDS011;56280;49.662;8.408;2022-09-03T06:31:11;5.18;;;3.10;;
69172;SDS011;56280;49.662;8.408;2022-09-03T06:33:38;4.63;;;2.85;;
69172;SDS011;56280;49.662;8.408;2022-09-03T06:36:05;4.10;;;3.10;;
69172;SDS011;56280;49.662;8.408;2022-09-03T06:38:33;4.70;;;3.37;;
69172;SDS011;56280;49.662;8.408;2022-09-03T06:41:00;4.25;;;3.28;;
69172;SDS011;56280;49.662;8.408;2022-09-03T06:43:27;5.72;;;4.13;;
69172;SDS011;56280;49.662;8.408;2022-09-03T06:45:58;5.63;;;4.00;;
69172;SDS011;56280;49.662;8.408;2022-09-03T06:48:25;6.72;;;3.55;;
69172;SDS011;56280;49.662;8.408;2022-09-03T06:50:59;7.87;;;4.33;;
69172;SDS011;56280;49.662;8.408;2022-09-03T06:53:32;8.00;;;4.35;;
69172;SDS011;56280;49.662;8.408;2022-09-03T06:56:00;10.27;;;5.28;;
69172;SDS011;56280;49.662;8.408;2022-09-03T06:58:29;7.32;;;5.50;;
69172;SDS011;56280;49.662;8.408;2022-09-03T07:01:06;8.32;;;5.60;;
69172;SDS011;56280;49.662;8.408;2022-09-03T07:03:36;9.63;;;6.60;;
69172;SDS011;56280;49.662;8.408;2022-09-03T07:06:03;9.60;;;6.25;;
69172;SDS011;56280;49.662;8.408;2022-09-03T07:08:31;12.00;;;6.40;;
69172;SDS011;56280;49.662;8.408;2022-09-03T07:10:58;9.70;;;5.65;;
69172;SDS011;56280;49.662;8.408;2022-09-03T07:13:29;7.43;;;5.95;;
69172;SDS011;56280;49.662;8.408;2022-09-03T07:15:58;8.83;;;5.47;;
69172;SDS011;56280;49.662;8.408;2022-09-03T07:18:25;9.40;;;5.95;;
69172;SDS011;56280;49.662;8.408;2022-09-03T07:20:50;7.50;;;6.70;;
69172;SDS011;56280;49.662;8.408;2022-09-03T07:23:15;8.40;;;5.50;;
69172;SDS011;56280;49.662;8.408;2022-09-03T07:25:42;8.40;;;5.50;;
69172;SDS011;56280;49.662;8.408;2022-09-03T07:28:07;9.97;;;5.70;;
69172;SDS011;56280;49.662;8.408;2022-09-03T07:30:33;7.87;;;5.10;;
69172;SDS011;56280;49.662;8.408;2022-09-03T07:32:58;10.63;;;8.65;;
69172;SDS011;56280;49.662;8.408;2022-09-03T07:35:27;9.10;;;7.70;;
69172;SDS011;56280;49.662;8.408;2022-09-03T07:37:52;8.93;;;7.57;;
69172;SDS011;56280;49.662;8.408;2022-09-03T07:40:19;9.88;;;7.70;;
69172;SDS011;56280;49.662;8.408;2022-09-03T07:42:44;8.63;;;7.63;;
69172;SDS011;56280;49.662;8.408;2022-09-03T07:45:12;11.77;;;8.82;;
69172;SDS011;56280;49.662;8.408;2022-09-03T07:47:44;11.35;;;8.63;;
69172;SDS011;56280;49.662;8.408;2022-09-03T07:50:11;9.25;;;7.18;;
69172;SDS011;56280;49.662;8.408;2022-09-03T07:52:36;9.97;;;8.00;;
69172;SDS011;56280;49.662;8.408;2022-09-03T07:55:02;8.43;;;7.33;;
69172;SDS011;56280;49.662;8.408;2022-09-03T07:57:28;10.05;;;6.88;;
69172;SDS011;56280;49.662;8.408;2022-09-03T07:59:54;12.05;;;7.15;;
69172;SDS011;56280;49.662;8.408;2022-09-03T08:02:19;8.63;;;6.63;;
69172;SDS011;56280;49.662;8.408;2022-09-03T08:04:45;12.57;;;6.97;;
69172;SDS011;56280;49.662;8.408;2022-09-03T08:07:10;9.43;;;6.38;;
69172;SDS011;56280;49.662;8.408;2022-09-03T08:09:36;8.83;;;6.30;;
69172;SDS011;56280;49.662;8.408;2022-09-03T08:12:02;7.20;;;6.50;;
69172;SDS011;56280;49.662;8.408;2022-09-03T08:14:27;10.35;;;6.05;;
69172;SDS011;56280;49.662;8.408;2022-09-03T08:16:55;8.82;;;6.70;;
69172;SDS011;56280;49.662;8.408;2022-09-03T08:19:21;8.52;;;6.30;;
69172;SDS011;56280;49.662;8.408;2022-09-03T08:21:47;10.73;;;6.00;;
69172;SDS011;56280;49.662;8.408;2022-09-03T08:24:13;9.45;;;6.20;;
69172;SDS011;56280;49.662;8.408;2022-09-03T08:26:40;8.00;;;6.50;;
69172;SDS011;56280;49.662;8.408;2022-09-03T08:29:07;9.82;;;6.93;;
69172;SDS011;56280;49.662;8.408;2022-09-03T08:31:33;8.15;;;6.40;;
69172;SDS011;56280;49.662;8.408;2022-09-03T08:34:00;8.75;;;7.75;;
69172;SDS011;56280;49.662;8.408;2022-09-03T08:36:30;11.40;;;6.78;;
69172;SDS011;56280;49.662;8.408;2022-09-03T08:38:58;8.10;;;6.47;;
69172;SDS011;56280;49.662;8.408;2022-09-03T08:54:54;8.55;;;7.40;;
69172;SDS011;56280;49.662;8.408;2022-09-03T08:57:35;11.88;;;8.10;;
69172;SDS011;56280;49.662;8.408;2022-09-03T09:00:07;9.63;;;7.78;;
69172;SDS011;56280;49.662;8.408;2022-09-03T09:02:57;8.43;;;6.80;;
69172;SDS011;56280;49.662;8.408;2022-09-03T09:05:40;8.48;;;7.00;;
69172;SDS011;56280;49.662;8.408;2022-09-03T09:08:20;9.00;;;7.65;;
69172;SDS011;56280;49.662;8.408;2022-09-03T09:14:02;12.57;;;7.40;;
69172;SDS011;56280;49.662;8.408;2022-09-03T09:24:26;10.80;;;7.47;;
69172;SDS011;56280;49.662;8.408;2022-09-03T09:26:59;8.85;;;6.95;;
69172;SDS011;56280;49.662;8.408;2022-09-03T09:29:31;9.00;;;6.00;;
69172;SDS011;56280;49.662;8.408;2022-09-03T09:31:59;10.70;;;6.60;;
69172;SDS011;56280;49.662;8.408;2022-09-03T09:34:25;10.43;;;7.30;;
69172;SDS011;56280;49.662;8.408;2022-09-03T09:36:52;10.73;;;6.70;;
69172;SDS011;56280;49.662;8.408;2022-09-03T09:39:19;8.82;;;6.95;;
69172;SDS011;56280;49.662;8.408;2022-09-03T09:41:58;8.85;;;7.50;;
69172;SDS011;56280;49.662;8.408;2022-09-03T09:44:29;10.48;;;8.02;;
69172;SDS011;56280;49.662;8.408;2022-09-03T09:47:29;9.17;;;7.73;;
69172;SDS011;56280;49.662;8.408;2022-09-03T09:49:52;11.20;;;7.65;;
69172;SDS011;56280;49.662;8.408;2022-09-03T09:52:23;11.30;;;9.80;;
69172;SDS011;56280;49.662;8.408;2022-09-03T09:54:50;15.02;;;12.80;;
69172;SDS011;56280;49.662;8.408;2022-09-03T09:57:22;14.25;;;12.75;;
69172;SDS011;56280;49.662;8.408;2022-09-03T09:59:49;13.18;;;11.75;;
69172;SDS011;56280;49.662;8.408;2022-09-03T10:02:26;18.70;;;15.68;;
69172;SDS011;56280;49.662;8.408;2022-09-03T10:04:54;16.90;;;14.82;;
69172;SDS011;56280;49.662;8.408;2022-09-03T10:07:40;16.83;;;15.02;;
69172;SDS011;56280;49.662;8.408;2022-09-03T10:10:09;18.13;;;16.23;;
69172;SDS011;56280;49.662;8.408;2022-09-03T10:12:44;16.75;;;14.55;;
69172;SDS011;56280;49.662;8.408;2022-09-03T10:15:23;19.92;;;15.40;;
69172;SDS011;56280;49.662;8.408;2022-09-03T10:23:09;13.90;;;12.20;;
69172;SDS011;56280;49.662;8.408;2022-09-03T10:28:31;12.20;;;10.65;;
69172;SDS011;56280;49.662;8.408;2022-09-03T10:33:38;10.27;;;9.07;;
69172;SDS011;56280;49.662;8.408;2022-09-03T10:36:17;11.70;;;8.83;;
69172;SDS011;56280;49.662;8.408;2022-09-03T10:38:47;10.32;;;7.88;;
69172;SDS011;56280;49.662;8.408;2022-09-03T10:41:26;9.30;;;7.95;;
69172;SDS011;56280;49.662;8.408;2022-09-03T10:49:46;11.43;;;9.17;;
69172;SDS011;56280;49.662;8.408;2022-09-03T11:02:24;9.25;;;7.50;;
69172;SDS011;56280;49.662;8.408;2022-09-03T11:05:19;10.18;;;7.57;;
69172;SDS011;56280;49.662;8.408;2022-09-03T11:07:57;10.30;;;7.88;;
69172;SDS011;56280;49.662;8.408;2022-09-03T11:10:27;9.43;;;7.47;;
69172;SDS011;56280;49.662;8.408;2022-09-03T11:13:00;8.38;;;7.28;;
69172;SDS011;56280;49.662;8.408;2022-09-03T11:15:39;11.10;;;7.72;;
69172;SDS011;56280;49.662;8.408;2022-09-03T11:18:21;9.07;;;7.43;;
69172;SDS011;56280;49.662;8.408;2022-09-03T11:20:51;7.90;;;7.10;;
69172;SDS011;56280;49.662;8.408;2022-09-03T11:23:19;7.30;;;5.45;;
69172;SDS011;56280;49.662;8.408;2022-09-03T11:25:48;9.52;;;7.32;;
69172;SDS011;56280;49.662;8.408;2022-09-03T11:34:24;12.27;;;6.85;;
69172;SDS011;56280;49.662;8.408;2022-09-03T11:37:03;7.72;;;6.45;;
69172;SDS011;56280;49.662;8.408;2022-09-03T11:42:03;9.17;;;7.03;;
69172;SDS011;56280;49.662;8.408;2022-09-03T11:44:43;7.13;;;5.72;;
69172;SDS011;56280;49.662;8.408;2022-09-03T11:47:52;7.57;;;6.30;;
69172;SDS011;56280;49.662;8.408;2022-09-03T11:50:06;7.88;;;5.55;;
69172;SDS011;56280;49.662;8.408;2022-09-03T11:52:40;8.32;;;5.93;;
69172;SDS011;56280;49.662;8.408;2022-09-03T11:55:06;8.23;;;6.90;;
69172;SDS011;56280;49.662;8.408;2022-09-03T11:57:32;7.53;;;6.53;;
69172;SDS011;56280;49.662;8.408;2022-09-03T12:00:09;8.52;;;6.50;;
69172;SDS011;56280;49.662;8.408;2022-09-03T12:02:56;9.13;;;6.82;;
69172;SDS011;56280;49.662;8.408;2022-09-03T12:10:50;6.80;;;6.00;;
69172;SDS011;56280;49.662;8.408;2022-09-03T12:13:41;7.60;;;5.60;;
69172;SDS011;56280;49.662;8.408;2022-09-03T12:16:47;7.60;;;5.90;;
69172;SDS011;56280;49.662;8.408;2022-09-03T12:19:26;7.80;;;6.47;;
69172;SDS011;56280;49.662;8.408;2022-09-03T12:21:59;7.85;;;6.70;;
69172;SDS011;56280;49.662;8.408;2022-09-03T12:24:27;7.40;;;6.05;;
69172;SDS011;56280;49.662;8.408;2022-09-03T12:27:01;8.00;;;6.18;;
69172;SDS011;56280;49.662;8.408;2022-09-03T12:29:28;8.48;;;5.63;;
69172;SDS011;56280;49.662;8.408;2022-09-03T12:31:55;7.27;;;5.10;;
69172;SDS011;56280;49.662;8.408;2022-09-03T12:34:30;7.05;;;5.07;;
69172;SDS011;56280;49.662;8.408;2022-09-03T12:36:56;7.38;;;4.63;;
69172;SDS011;56280;49.662;8.408;2022-09-03T12:47:00;6.78;;;4.40;;
69172;SDS011;56280;49.662;8.408;2022-09-03T12:49:37;7.00;;;4.85;;
69172;SDS011;56280;49.662;8.408;2022-09-03T12:57:33;5.70;;;4.07;;
69172;SDS011;56280;49.662;8.408;2022-09-03T13:00:05;6.93;;;4.40;;
69172;SDS011;56280;49.662;8.408;2022-09-03T13:03:15;6.32;;;3.78;;
69172;SDS011;56280;49.662;8.408;2022-09-03T13:05:41;4.80;;;3.72;;
69172;SDS011;56280;49.662;8.408;2022-09-03T13:08:13;5.80;;;4.13;;
69172;SDS011;56280;49.662;8.408;2022-09-03T13:10:42;5.00;;;3.60;;
69172;SDS011;56280;49.662;8.408;2022-09-03T13:13:24;4.83;;;3.83;;
69172;SDS011;56280;49.662;8.408;2022-09-03T13:21:23;5.30;;;2.90;;
69172;SDS011;56280;49.662;8.408;2022-09-03T13:26:41;4.65;;;2.42;;
69172;SDS011;56280;49.662;8.408;2022-09-03T13:41:05;2.85;;;1.70;;
69172;SDS011;56280;49.662;8.408;2022-09-03T13:43:42;3.22;;;2.17;;
69172;SDS011;56280;49.662;8.408;2022-09-03T13:46:15;4.00;;;1.90;;
69172;SDS011;56280;49.662;8.408;2022-09-03T13:48:47;3.23;;;1.90;;
69172;SDS011;56280;49.662;8.408;2022-09-03T13:51:41;2.90;;;1.92;;
69172;SDS011;56280;49.662;8.408;2022-09-03T13:54:12;3.22;;;2.10;;
69172;SDS011;56280;49.662;8.408;2022-09-03T13:57:02;3.40;;;2.00;;
69172;SDS011;56280;49.662;8.408;2022-09-03T13:59:42;3.28;;;2.03;;
69172;SDS011;56280;49.662;8.408;2022-09-03T14:02:15;2.90;;;2.00;;
69172;SDS011;56280;49.662;8.408;2022-09-03T14:07:43;3.20;;;1.83;;
69172;SDS011;56280;49.662;8.408;2022-09-03T14:10:34;2.83;;;1.67;;
69172;SDS011;56280;49.662;8.408;2022-09-03T14:19:00;3.78;;;1.95;;
69172;SDS011;56280;49.662;8.408;2022-09-03T14:21:34;4.32;;;1.90;;
69172;SDS011;56280;49.662;8.408;2022-09-03T14:24:32;3.58;;;2.05;;
69172;SDS011;56280;49.662;8.408;2022-09-03T14:27:29;4.95;;;2.65;;
69172;SDS011;56280;49.662;8.408;2022-09-03T14:30:00;3.67;;;2.20;;
69172;SDS011;56280;49.662;8.408;2022-09-03T14:32:29;3.53;;;2.40;;
69172;SDS011;56280;49.662;8.408;2022-09-03T14:40:15;3.70;;;2.30;;
69172;SDS011;56280;49.662;8.408;2022-09-03T14:42:55;4.00;;;2.20;;
69172;SDS011;56280;49.662;8.408;2022-09-03T14:48:59;3.65;;;2.30;;
69172;SDS011;56280;49.662;8.408;2022-09-03T14:51:16;3.80;;;2.50;;
69172;SDS011;56280;49.662;8.408;2022-09-03T14:56:43;4.97;;;2.80;;
69172;SDS011;56280;49.662;8.408;2022-09-03T15:12:47;4.57;;;2.80;;
69172;SDS011;56280;49.662;8.408;2022-09-03T15:15:17;5.18;;;3.28;;
69172;SDS011;56280;49.662;8.408;2022-09-03T15:18:02;4.65;;;3.10;;
69172;SDS011;56280;49.662;8.408;2022-09-03T15:20:53;4.80;;;3.17;;
69172;SDS011;56280;49.662;8.408;2022-09-03T15:31:58;4.60;;;3.28;;
69172;SDS011;56280;49.662;8.408;2022-09-03T15:34:49;3.80;;;3.00;;
69172;SDS011;56280;49.662;8.408;2022-09-03T15:37:27;4.40;;;3.07;;
69172;SDS011;56280;49.662;8.408;2022-09-03T15:40:21;4.80;;;3.20;;
69172;SDS011;56280;49.662;8.408;2022-09-03T15:42:46;5.05;;;3.50;;
69172;SDS011;56280;49.662;8.408;2022-09-03T15:45:19;4.75;;;3.00;;
69172;SDS011;56280;49.662;8.408;2022-09-03T15:47:53;4.55;;;3.35;;
69172;SDS011;56280;49.662;8.408;2022-09-03T15:50:33;4.70;;;3.67;;
69172;SDS011;56280;49.662;8.408;2022-09-03T15:58:44;5.47;;;4.70;;
69172;SDS011;56280;49.662;8.408;2022-09-03T16:01:25;5.22;;;4.13;;
69172;SDS011;56280;49.662;8.408;2022-09-03T16:04:01;3.93;;;2.70;;
69172;SDS011;56280;49.662;8.408;2022-09-03T16:09:19;3.78;;;2.70;;
69172;SDS011;56280;49.662;8.408;2022-09-03T16:14:54;3.90;;;1.90;;
69172;SDS011;56280;49.662;8.408;2022-09-03T16:17:26;3.20;;;1.60;;
69172;SDS011;56280;49.662;8.408;2022-09-03T16:22:33;4.75;;;2.92;;
69172;SDS011;56280;49.662;8.408;2022-09-03T16:25:14;4.45;;;2.30;;
69172;SDS011;56280;49.662;8.408;2022-09-03T16:27:51;4.78;;;2.40;;
69172;SDS011;56280;49.662;8.408;2022-09-03T16:33:29;4.03;;;2.42;;
69172;SDS011;56280;49.662;8.408;2022-09-03T16:36:11;4.78;;;2.95;;
69172;SDS011;56280;49.662;8.408;2022-09-03T16:52:47;2.67;;;0.93;;
69172;SDS011;56280;49.662;8.408;2022-09-03T16:55:33;2.10;;;0.75;;
69172;SDS011;56280;49.662;8.408;2022-09-03T17:01:15;3.95;;;1.33;;
69172;SDS011;56280;49.662;8.408;2022-09-03T17:04:11;5.10;;;1.10;;
69172;SDS011;56280;49.662;8.408;2022-09-03T17:15:06;7.80;;;1.52;;
69172;SDS011;56280;49.662;8.408;2022-09-03T17:20:53;4.35;;;1.60;;
69172;SDS011;56280;49.662;8.408;2022-09-03T17:26:10;4.57;;;1.20;;
69172;SDS011;56280;49.662;8.408;2022-09-03T17:36:37;3.40;;;1.42;;
69172;SDS011;56280;49.662;8.408;2022-09-03T17:39:36;4.73;;;1.70;;
69172;SDS011;56280;49.662;8.408;2022-09-03T17:45:14;3.95;;;1.70;;
69172;SDS011;56280;49.662;8.408;2022-09-03T17:48:03;3.67;;;1.70;;
69172;SDS011;56280;49.662;8.408;2022-09-03T17:50:45;4.60;;;1.80;;
69172;SDS011;56280;49.662;8.408;2022-09-03T17:53:21;3.90;;;1.80;;
69172;SDS011;56280;49.662;8.408;2022-09-03T17:56:03;3.05;;;1.63;;
69172;SDS011;56280;49.662;8.408;2022-09-03T17:58:39;4.35;;;1.50;;
69172;SDS011;56280;49.662;8.408;2022-09-03T18:01:14;4.65;;;1.70;;
69172;SDS011;56280;49.662;8.408;2022-09-03T18:09:26;3.88;;;1.70;;
69172;SDS011;56280;49.662;8.408;2022-09-03T18:12:05;6.15;;;1.73;;
69172;SDS011;56280;49.662;8.408;2022-09-03T18:14:40;3.75;;;1.70;;
69172;SDS011;56280;49.662;8.408;2022-09-03T18:17:19;3.67;;;1.80;;
69172;SDS011;56280;49.662;8.408;2022-09-03T18:19:54;4.23;;;1.70;;
69172;SDS011;56280;49.662;8.408;2022-09-03T18:26:09;5.03;;;1.73;;
69172;SDS011;56280;49.662;8.408;2022-09-03T18:29:00;3.38;;;1.88;;
69172;SDS011;56280;49.662;8.408;2022-09-03T18:31:47;5.90;;;2.13;;
69172;SDS011;56280;49.662;8.408;2022-09-03T18:34:32;5.53;;;1.73;;
69172;SDS011;56280;49.662;8.408;2022-09-03T18:37:20;4.57;;;1.92;;
69172;SDS011;56280;49.662;8.408;2022-09-03T18:40:06;4.32;;;2.10;;
69172;SDS011;56280;49.662;8.408;2022-09-03T18:49:26;5.70;;;1.70;;
69172;SDS011;56280;49.662;8.408;2022-09-03T19:04:26;3.87;;;2.20;;
69172;SDS011;56280;49.662;8.408;2022-09-03T19:07:20;5.20;;;2.40;;
69172;SDS011;56280;49.662;8.408;2022-09-03T19:10:25;4.85;;;2.50;;
69172;SDS011;56280;49.662;8.408;2022-09-03T19:13:33;6.18;;;3.05;;
69172;SDS011;56280;49.662;8.408;2022-09-03T19:16:20;4.07;;;2.70;;
69172;SDS011;56280;49.662;8.408;2022-09-03T19:21:58;5.72;;;3.03;;
69172;SDS011;56280;49.662;8.408;2022-09-03T19:25:04;6.32;;;3.55;;
69172;SDS011;56280;49.662;8.408;2022-09-03T19:30:59;5.03;;;2.80;;
69172;SDS011;56280;49.662;8.408;2022-09-03T19:37:20;5.22;;;2.95;;
69172;SDS011;56280;49.662;8.408;2022-09-03T19:46:49;5.47;;;3.42;;
69172;SDS011;56280;49.662;8.408;2022-09-03T19:49:37;5.47;;;3.23;;
69172;SDS011;56280;49.662;8.408;2022-09-03T19:55:20;5.85;;;3.80;;
69172;SDS011;56280;49.662;8.408;2022-09-03T19:58:08;6.10;;;3.45;;
69172;SDS011;56280;49.662;8.408;2022-09-03T20:00:54;9.15;;;4.55;;
69172;SDS011;56280;49.662;8.408;2022-09-03T20:03:40;6.30;;;4.00;;
69172;SDS011;56280;49.662;8.408;2022-09-03T20:06:25;5.75;;;3.80;;
69172;SDS011;56280;49.662;8.408;2022-09-03T20:09:12;7.47;;;3.85;;
69172;SDS011;56280;49.662;8.408;2022-09-03T20:11:59;7.47;;;3.92;;
69172;SDS011;56280;49.662;8.408;2022-09-03T20:14:31;6.68;;;4.40;;
69172;SDS011;56280;49.662;8.408;2022-09-03T20:17:16;6.40;;;4.40;;
69172;SDS011;56280;49.662;8.408;2022-09-03T20:26:00;6.60;;;3.75;;
69172;SDS011;56280;49.662;8.408;2022-09-03T20:31:08;6.33;;;3.33;;
69172;SDS011;56280;49.662;8.408;2022-09-03T20:36:47;7.40;;;4.07;;
69172;SDS011;56280;49.662;8.408;2022-09-03T20:39:39;6.75;;;4.57;;
69172;SDS011;56280;49.662;8.408;2022-09-03T20:47:27;8.38;;;5.45;;